createdAt,value
2018-04-26T00:00:28.672Z,61.00
2018-04-26T00:03:00.847Z,61.00
2018-04-26T00:05:32.933Z,61.20
2018-04-26T00:08:05.103Z,61.30
2018-04-26T00:10:37.251Z,61.30
2018-04-26T00:13:09.471Z,61.30
2018-04-26T00:15:41.885Z,61.80
2018-04-26T00:18:14.064Z,62.00
2018-04-26T00:20:46.220Z,62.00
2018-04-26T00:23:18.396Z,62.30
2018-04-26T00:25:50.841Z,62.40
2018-04-26T00:28:23.879Z,62.90
2018-04-26T00:30:56.023Z,62.90
2018-04-26T00:33:28.175Z,63.10
2018-04-26T00:36:00.432Z,63.00
2018-04-26T00:38:32.679Z,63.00
2018-04-26T00:41:04.768Z,63.10
2018-04-26T00:43:37.127Z,63.00
2018-04-26T00:46:09.451Z,63.00
2018-04-26T00:48:41.595Z,63.00
2018-04-26T00:51:13.820Z,63.10
2018-04-26T00:53:46.795Z,63.00
2018-04-26T00:56:18.934Z,63.00
2018-04-26T00:58:51.243Z,63.20
2018-04-26T01:01:24.296Z,64.00
2018-04-26T01:03:56.544Z,64.00
2018-04-26T01:06:28.911Z,64.50
2018-04-26T01:09:01.187Z,64.80
2018-04-26T01:11:33.236Z,65.50
2018-04-26T01:14:05.551Z,65.80
2018-04-26T01:16:37.703Z,66.10
2018-04-26T01:19:10.024Z,66.40
2018-04-26T01:21:42.873Z,66.90
2018-04-26T01:24:14.975Z,66.90
2018-04-26T01:26:47.756Z,67.10
2018-04-26T01:29:20.699Z,67.20
2018-04-26T01:31:52.888Z,67.30
2018-04-26T01:34:25.207Z,67.40
2018-04-26T01:37:09.788Z,67.30
2018-04-26T01:39:42.068Z,67.60
2018-04-26T01:42:15.008Z,67.50
2018-04-26T01:44:47.220Z,67.70
2018-04-26T01:47:19.327Z,67.70
2018-04-26T01:49:51.391Z,68.00
2018-04-26T01:52:23.740Z,67.80
2018-04-26T01:54:56.072Z,67.90
2018-04-26T01:57:28.312Z,67.80
2018-04-26T02:00:00.463Z,68.20
2018-04-26T02:02:33.543Z,68.70
2018-04-26T02:05:06.627Z,68.60
2018-04-26T02:07:38.768Z,68.70
2018-04-26T02:10:10.950Z,68.90
2018-04-26T02:12:43.268Z,68.80
2018-04-26T02:15:15.404Z,69.10
2018-04-26T02:17:47.563Z,69.10
2018-04-26T02:20:20.626Z,69.20
2018-04-26T02:22:53.956Z,69.30
2018-04-26T02:25:26.152Z,69.60
2018-04-26T02:27:58.259Z,69.80
2018-04-26T02:30:32.035Z,70.40
2018-04-26T02:33:04.304Z,70.30
2018-04-26T02:35:36.701Z,70.60
2018-04-26T02:38:09.584Z,70.70
2018-04-26T02:40:41.720Z,70.70
2018-04-26T02:43:14.019Z,70.90
2018-04-26T02:45:46.181Z,71.70
2018-04-26T02:48:18.477Z,72.70
2018-04-26T02:50:50.900Z,73.30
2018-04-26T02:53:23.696Z,74.30
2018-04-26T02:55:55.892Z,74.50
2018-04-26T02:58:28.040Z,75.10
2018-04-26T03:01:00.919Z,76.00
2018-04-26T03:03:33.131Z,76.40
2018-04-26T03:06:05.271Z,77.00
2018-04-26T03:08:37.403Z,77.30
2018-04-26T03:11:09.527Z,78.10
2018-04-26T03:13:41.616Z,78.50
2018-04-26T03:16:13.674Z,79.50
2018-04-26T03:18:46.605Z,79.90
2018-04-26T03:21:18.887Z,80.20
2018-04-26T03:23:51.144Z,80.60
2018-04-26T03:26:23.952Z,81.00
2018-04-26T03:28:56.121Z,81.10
2018-04-26T03:31:28.209Z,81.20
2018-04-26T03:34:00.261Z,81.10
2018-04-26T03:36:32.511Z,80.50
2018-04-26T03:39:04.778Z,80.20
2018-04-26T03:41:36.887Z,80.30
2018-04-26T03:44:09.845Z,80.90
2018-04-26T03:46:42.050Z,81.00
2018-04-26T03:49:15.263Z,81.30
2018-04-26T03:51:48.179Z,81.40
2018-04-26T03:54:20.347Z,81.30
2018-04-26T03:56:52.728Z,81.30
2018-04-26T03:59:26.161Z,81.10
2018-04-26T04:02:11.631Z,81.00
2018-04-26T04:04:56.263Z,81.00
2018-04-26T04:07:28.531Z,81.00
2018-04-26T04:10:00.908Z,81.30
2018-04-26T04:12:33.151Z,81.50
2018-04-26T04:15:05.269Z,81.70
2018-04-26T04:17:37.564Z,81.70
2018-04-26T04:20:09.707Z,81.50
2018-04-26T04:22:41.843Z,81.60
2018-04-26T04:25:14.955Z,81.60
2018-04-26T04:27:47.341Z,81.50
2018-04-26T04:30:19.559Z,81.40
2018-04-26T04:32:51.840Z,81.10
2018-04-26T04:35:24.062Z,80.90
2018-04-26T04:37:56.111Z,80.80
2018-04-26T04:40:28.933Z,80.50
2018-04-26T04:43:01.831Z,80.20
2018-04-26T04:45:33.964Z,80.20
2018-04-26T04:48:06.638Z,80.30
2018-04-26T04:50:38.915Z,80.10
2018-04-26T04:53:13.309Z,79.80
2018-04-26T04:55:45.520Z,79.90
2018-04-26T04:58:18.815Z,79.70
2018-04-26T05:00:51.009Z,83.60
2018-04-26T05:03:23.341Z,87.20
2018-04-26T05:05:57.051Z,88.50
2018-04-26T05:08:29.259Z,88.50
2018-04-26T05:11:01.592Z,88.90
2018-04-26T05:13:34.358Z,88.90
2018-04-26T05:16:06.528Z,88.90
2018-04-26T05:18:38.844Z,89.00
2018-04-26T05:21:11.019Z,89.00
2018-04-26T05:23:43.252Z,89.50
2018-04-26T05:26:15.414Z,89.10
2018-04-26T05:28:47.529Z,88.80
2018-04-26T05:31:19.655Z,87.10
2018-04-26T05:33:51.921Z,86.50
2018-04-26T05:36:24.727Z,86.90
2018-04-26T05:38:56.880Z,87.00
2018-04-26T05:41:29.007Z,87.60
2018-04-26T05:44:01.751Z,87.80
2018-04-26T05:46:38.009Z,88.40
2018-04-26T05:49:10.316Z,88.70
2018-04-26T05:51:43.239Z,89.60
2018-04-26T05:54:15.431Z,89.60
2018-04-26T05:56:49.104Z,89.90
2018-04-26T05:59:21.172Z,90.00
2018-04-26T06:01:53.256Z,90.20
2018-04-26T06:04:26.133Z,90.40
2018-04-26T06:06:58.472Z,90.40
2018-04-26T06:09:30.784Z,90.50
2018-04-26T06:14:40.720Z,90.90
2018-04-26T06:17:13.772Z,90.90
2018-04-26T06:19:45.872Z,91.10
2018-04-26T06:22:18.041Z,91.00
2018-04-26T06:24:50.631Z,91.00
2018-04-26T06:27:22.816Z,91.00
2018-04-26T06:29:55.124Z,91.30
2018-04-26T06:32:28.023Z,90.90
2018-04-26T06:35:01.692Z,90.90
2018-04-26T06:37:33.995Z,90.50
2018-04-26T06:40:06.677Z,90.90
2018-04-26T06:42:38.992Z,91.10
2018-04-26T06:45:11.360Z,90.40
2018-04-26T06:47:44.175Z,87.90
2018-04-26T06:50:17.133Z,85.40
2018-04-26T06:52:49.343Z,83.50
2018-04-26T06:55:21.644Z,79.80
2018-04-26T06:57:53.736Z,78.20
2018-04-26T07:00:26.792Z,75.60
2018-04-26T07:02:59.023Z,71.00
2018-04-26T07:05:31.160Z,68.20
2018-04-26T07:08:03.507Z,68.30
2018-04-26T07:10:35.767Z,66.70
2018-04-26T07:13:07.935Z,65.70
2018-04-26T07:15:40.083Z,63.00
2018-04-26T07:18:12.204Z,62.80
2018-04-26T07:20:45.258Z,57.80
2018-04-26T07:23:17.597Z,57.70
2018-04-26T07:25:49.847Z,57.40
2018-04-26T07:28:21.957Z,55.90
2018-04-26T07:30:54.328Z,56.60
2018-04-26T07:33:26.675Z,56.40
2018-04-26T07:35:59.700Z,56.00
2018-04-26T07:38:31.955Z,55.90
2018-04-26T07:41:04.968Z,56.50
2018-04-26T07:43:38.572Z,57.90
2018-04-26T07:46:10.775Z,58.90
2018-04-26T07:48:42.912Z,58.40
2018-04-26T07:51:15.010Z,58.70
2018-04-26T07:53:47.355Z,57.60
2018-04-26T07:56:19.648Z,57.00
2018-04-26T07:58:52.015Z,57.50
2018-04-26T08:01:25.169Z,58.90
2018-04-26T08:03:57.380Z,58.80
2018-04-26T08:06:29.653Z,60.20
2018-04-26T08:09:01.946Z,62.00
2018-04-26T08:11:35.443Z,65.80
2018-04-26T08:14:07.603Z,66.00
2018-04-26T08:16:39.759Z,64.60
2018-04-26T08:19:12.053Z,61.00
2018-04-26T08:21:44.148Z,57.30
2018-04-26T08:24:16.444Z,56.40
2018-04-26T08:26:48.737Z,54.70
2018-04-26T08:29:21.080Z,52.60
2018-04-26T08:31:54.046Z,49.00
2018-04-26T08:34:26.386Z,48.30
2018-04-26T08:36:59.231Z,48.00
2018-04-26T08:39:31.476Z,46.80
2018-04-26T08:42:03.872Z,45.60
2018-04-26T08:44:36.198Z,47.00
2018-04-26T08:47:08.400Z,49.10
2018-04-26T08:49:40.651Z,50.80
2018-04-26T08:52:13.100Z,53.10
2018-04-26T08:54:46.165Z,52.40
2018-04-26T08:57:18.375Z,50.20
2018-04-26T08:59:51.344Z,48.20
2018-04-26T09:02:23.628Z,48.20
2018-04-26T09:04:56.044Z,45.60
2018-04-26T09:07:29.128Z,45.10
2018-04-26T09:10:01.319Z,46.40
2018-04-26T09:12:36.584Z,47.50
2018-04-26T09:15:09.771Z,50.20
2018-04-26T09:17:42.328Z,51.40
2018-04-26T09:20:14.515Z,50.20
2018-04-26T09:22:46.840Z,50.40
2018-04-26T09:25:19.006Z,48.40
2018-04-26T09:27:51.324Z,46.70
2018-04-26T09:30:23.624Z,46.40
2018-04-26T09:32:55.891Z,47.30
2018-04-26T09:35:28.293Z,48.20
2018-04-26T09:38:00.616Z,49.60
2018-04-26T09:40:34.207Z,49.20
2018-04-26T09:43:07.232Z,49.20
2018-04-26T09:45:39.521Z,49.60
2018-04-26T09:48:11.676Z,48.90
2018-04-26T09:50:43.997Z,47.50
2018-04-26T09:53:16.287Z,48.10
2018-04-26T09:55:48.598Z,47.30
2018-04-26T09:58:23.220Z,46.20
2018-04-26T10:00:55.620Z,46.20
2018-04-26T10:03:28.171Z,44.70
2018-04-26T10:06:03.383Z,45.10
2018-04-26T10:08:35.468Z,44.70
2018-04-26T10:11:07.877Z,42.10
2018-04-26T10:13:40.901Z,41.40
2018-04-26T10:16:13.052Z,41.30
2018-04-26T10:18:46.660Z,43.80
2018-04-26T10:21:19.015Z,43.80
2018-04-26T10:23:51.163Z,43.70
2018-04-26T10:26:24.256Z,43.10
2018-04-26T10:28:57.683Z,43.10
2018-04-26T10:31:30.040Z,43.20
2018-04-26T10:34:02.283Z,43.00
2018-04-26T10:36:34.407Z,44.70
2018-04-26T10:39:06.715Z,44.90
2018-04-26T10:41:38.792Z,44.70
2018-04-26T10:44:11.273Z,44.80
2018-04-26T10:46:44.199Z,45.60
2018-04-26T10:49:16.620Z,45.60
2018-04-26T10:51:48.904Z,46.90
2018-04-26T10:54:21.197Z,47.30
2018-04-26T10:56:53.345Z,47.70
2018-04-26T10:59:25.447Z,48.10
2018-04-26T11:01:57.580Z,48.70
2018-04-26T11:04:29.775Z,48.80
2018-04-26T11:07:03.095Z,48.90
2018-04-26T11:09:36.132Z,47.70
2018-04-26T11:12:08.344Z,47.70
2018-04-26T11:14:40.604Z,46.60
2018-04-26T11:17:12.899Z,47.20
2018-04-26T11:19:45.340Z,46.20
2018-04-26T11:22:18.056Z,45.50
2018-04-26T11:24:50.450Z,45.10
2018-04-26T11:27:22.829Z,45.00
2018-04-26T11:29:55.088Z,44.50
2018-04-26T11:32:28.726Z,44.10
2018-04-26T11:35:01.065Z,42.60
2018-04-26T11:37:34.322Z,42.00
2018-04-26T11:40:10.093Z,42.40
2018-04-26T11:42:42.333Z,41.00
2018-04-26T11:45:15.100Z,40.00
2018-04-26T11:47:48.597Z,40.60
2018-04-26T11:50:20.886Z,42.40
2018-04-26T11:52:54.131Z,43.00
2018-04-26T11:55:26.324Z,43.70
2018-04-26T11:57:58.615Z,43.90
2018-04-26T12:00:30.884Z,43.40
2018-04-26T12:03:04.047Z,44.40
2018-04-26T12:05:36.296Z,44.40
2018-04-26T12:08:08.439Z,44.90
2018-04-26T12:10:41.567Z,43.90
2018-04-26T12:13:13.855Z,44.50
2018-04-26T12:15:46.987Z,43.80
2018-04-26T12:18:19.631Z,43.90
2018-04-26T12:20:54.227Z,42.20
2018-04-26T12:23:26.787Z,40.60
2018-04-26T12:25:59.301Z,40.80
2018-04-26T12:28:31.577Z,41.10
2018-04-26T12:31:04.769Z,41.40
2018-04-26T12:33:37.030Z,41.40
2018-04-26T12:36:13.157Z,41.70
2018-04-26T12:38:47.686Z,41.40
2018-04-26T12:41:20.144Z,41.40
2018-04-26T12:43:52.646Z,41.30
2018-04-26T12:46:25.084Z,40.90
2018-04-26T12:48:57.785Z,41.10
2018-04-26T12:51:31.070Z,41.90
2018-04-26T12:54:03.352Z,43.00
2018-04-26T12:56:35.865Z,41.50
2018-04-26T12:59:08.134Z,40.80
2018-04-26T13:01:40.600Z,41.30
2018-04-26T13:04:14.405Z,40.90
2018-04-26T13:06:46.669Z,41.80
2018-04-26T13:09:19.983Z,47.80
2018-04-26T13:11:52.257Z,47.80
2018-04-26T13:14:24.509Z,50.60
2018-04-26T13:16:58.016Z,52.70
2018-04-26T13:19:30.260Z,54.90
2018-04-26T13:22:02.344Z,56.70
2018-04-26T13:24:34.656Z,59.00
2018-04-26T13:27:07.193Z,61.20
2018-04-26T13:29:39.405Z,60.60
2018-04-26T13:32:12.571Z,59.20
2018-04-26T13:34:47.303Z,56.40
2018-04-26T13:37:19.672Z,56.40
2018-04-26T13:39:52.505Z,56.70
2018-04-26T13:42:25.909Z,56.10
2018-04-26T13:44:58.563Z,52.40
2018-04-26T13:47:30.773Z,48.90
2018-04-26T13:50:03.256Z,48.90
2018-04-26T13:52:35.535Z,46.80
2018-04-26T13:55:09.096Z,44.80
2018-04-26T13:57:41.733Z,44.70
2018-04-26T14:00:15.276Z,45.50
2018-04-26T14:02:49.424Z,47.60
2018-04-26T14:05:22.045Z,47.50
2018-04-26T14:07:54.960Z,47.30
2018-04-26T14:10:27.439Z,42.30
2018-04-26T14:13:00.152Z,41.00
2018-04-26T14:15:32.481Z,41.20
2018-04-26T14:18:04.855Z,40.80
2018-04-26T14:20:38.213Z,41.10
2018-04-26T14:23:11.316Z,44.90
2018-04-26T14:25:43.449Z,44.80
2018-04-26T14:28:16.492Z,47.60
2018-04-26T14:30:49.245Z,51.00
2018-04-26T14:33:21.415Z,52.50
2018-04-26T14:35:53.682Z,54.20
2018-04-26T14:38:26.016Z,52.80
2018-04-26T14:40:58.310Z,53.20
2018-04-26T14:43:30.515Z,51.70
2018-04-26T14:46:02.796Z,49.60
2018-04-26T14:48:35.766Z,48.80
2018-04-26T14:51:07.955Z,48.70
2018-04-26T14:53:40.080Z,49.00
2018-04-26T14:56:13.969Z,49.40
2018-04-26T14:58:46.292Z,52.80
2018-04-26T15:01:18.669Z,53.10
2018-04-26T15:03:50.859Z,53.50
2018-04-26T15:06:23.199Z,54.30
2018-04-26T15:08:55.461Z,55.20
2018-04-26T15:11:27.773Z,55.30
2018-04-26T15:13:59.845Z,55.30
2018-04-26T15:16:32.207Z,56.00
2018-04-26T15:19:04.637Z,56.60
2018-04-26T15:21:37.047Z,57.70
2018-04-26T15:24:10.439Z,57.40
2018-04-26T15:26:43.896Z,56.90
2018-04-26T15:29:16.232Z,56.60
2018-04-26T15:31:48.350Z,56.20
2018-04-26T15:34:20.557Z,57.00
2018-04-26T15:36:53.482Z,58.10
2018-04-26T15:39:25.673Z,58.10
2018-04-26T15:41:57.827Z,56.40
2018-04-26T15:44:29.937Z,56.00
2018-04-26T15:47:02.204Z,55.00
2018-04-26T15:49:34.343Z,54.50
2018-04-26T15:52:06.495Z,54.70
2018-04-26T15:54:51.839Z,55.10
2018-04-26T15:57:31.272Z,55.10
2018-04-26T16:00:21.932Z,56.00
2018-04-26T16:03:06.589Z,56.00
2018-04-26T16:09:05.054Z,55.00
2018-04-26T16:11:49.742Z,54.50
2018-04-26T16:14:35.215Z,52.20
2018-04-26T16:17:28.734Z,52.20
2018-04-26T16:23:42.183Z,50.50
2018-04-26T16:26:26.828Z,50.50
2018-04-26T16:29:17.656Z,50.10
2018-04-26T16:35:20.372Z,49.70
2018-04-26T16:38:10.912Z,49.80
2018-04-26T16:40:43.976Z,49.20
2018-04-26T16:43:16.127Z,49.60
2018-04-26T16:45:48.448Z,49.40
2018-04-26T16:48:21.872Z,49.70
2018-04-26T16:50:54.112Z,49.80
2018-04-26T16:53:26.456Z,49.50
2018-04-26T16:55:58.726Z,49.70
2018-04-26T16:58:31.428Z,49.80
2018-04-26T17:01:03.668Z,49.90
2018-04-26T17:03:35.900Z,50.20
2018-04-26T17:06:08.020Z,50.20
2018-04-26T17:08:40.387Z,50.70
2018-04-26T17:11:12.675Z,51.20
2018-04-26T17:13:45.784Z,51.90
2018-04-26T17:16:17.915Z,52.10
2018-04-26T17:18:50.019Z,52.40
2018-04-26T17:21:22.855Z,53.90
2018-04-26T17:23:56.754Z,53.70
2018-04-26T17:26:28.979Z,54.40
2018-04-26T17:29:01.101Z,55.40
2018-04-26T17:31:33.376Z,56.20
2018-04-26T17:34:05.484Z,56.60
2018-04-26T17:36:37.628Z,57.40
2018-04-26T17:39:09.723Z,58.10
